sensor_id;sensor_type;location;lat;lon;timestamp;temperature;humidity
76305;DHT22;65111;50.536;19.204;2022-12-07T00:01:35;1.50;97.60
76305;DHT22;65111;50.536;19.204;2022-12-07T00:04:03;1.50;97.60
76305;DHT22;65111;50.536;19.204;2022-12-07T00:06:38;1.60;97.50
76305;DHT22;65111;50.536;19.204;2022-12-07T00:09:05;1.70;97.50
76305;DHT22;65111;50.536;19.204;2022-12-07T00:11:32;1.50;97.50
76305;DHT22;65111;50.536;19.204;2022-12-07T00:14:00;1.70;97.60
76305;DHT22;65111;50.536;19.204;2022-12-07T00:16:29;1.60;97.50
76305;DHT22;65111;50.536;19.204;2022-12-07T00:18:56;1.60;97.50
76305;DHT22;65111;50.536;19.204;2022-12-07T00:21:25;1.50;97.60
76305;DHT22;65111;50.536;19.204;2022-12-07T00:23:52;1.60;97.60
76305;DHT22;65111;50.536;19.204;2022-12-07T00:26:19;1.70;97.60
76305;DHT22;65111;50.536;19.204;2022-12-07T00:28:52;1.50;97.60
76305;DHT22;65111;50.536;19.204;2022-12-07T00:31:20;1.60;97.70
76305;DHT22;65111;50.536;19.204;2022-12-07T00:33:47;1.40;97.80
76305;DHT22;65111;50.536;19.204;2022-12-07T00:36:19;1.60;97.70
76305;DHT22;65111;50.536;19.204;2022-12-07T00:38:45;1.60;97.70
76305;DHT22;65111;50.536;19.204;2022-12-07T00:43:39;1.50;97.80
76305;DHT22;65111;50.536;19.204;2022-12-07T00:46:05;1.30;97.80
76305;DHT22;65111;50.536;19.204;2022-12-07T00:48:32;1.40;97.80
76305;DHT22;65111;50.536;19.204;2022-12-07T00:50:58;1.50;97.60
76305;DHT22;65111;50.536;19.204;2022-12-07T00:53:24;1.70;97.80
76305;DHT22;65111;50.536;19.204;2022-12-07T00:55:50;1.60;97.80
76305;DHT22;65111;50.536;19.204;2022-12-07T00:58:16;1.50;97.80
76305;DHT22;65111;50.536;19.204;2022-12-07T01:00:42;1.40;97.80
76305;DHT22;65111;50.536;19.204;2022-12-07T01:03:11;1.60;97.90
76305;DHT22;65111;50.536;19.204;2022-12-07T01:05:37;1.40;97.90
76305;DHT22;65111;50.536;19.204;2022-12-07T01:08:04;1.50;98.00
76305;DHT22;65111;50.536;19.204;2022-12-07T01:10:30;1.50;97.80
76305;DHT22;65111;50.536;19.204;2022-12-07T01:12:57;1.50;97.90
76305;DHT22;65111;50.536;19.204;2022-12-07T01:15:25;1.40;97.80
76305;DHT22;65111;50.536;19.204;2022-12-07T01:17:51;1.60;97.80
76305;DHT22;65111;50.536;19.204;2022-12-07T01:20:17;1.60;97.80
76305;DHT22;65111;50.536;19.204;2022-12-07T01:22:43;1.50;97.90
76305;DHT22;65111;50.536;19.204;2022-12-07T01:25:11;1.60;97.90
76305;DHT22;65111;50.536;19.204;2022-12-07T01:27:37;1.50;97.90
76305;DHT22;65111;50.536;19.204;2022-12-07T01:30:06;1.50;97.80
76305;DHT22;65111;50.536;19.204;2022-12-07T01:32:33;1.40;97.80
76305;DHT22;65111;50.536;19.204;2022-12-07T01:34:59;1.70;97.80
76305;DHT22;65111;50.536;19.204;2022-12-07T01:37:25;1.70;97.70
76305;DHT22;65111;50.536;19.204;2022-12-07T01:39:51;1.60;97.70
76305;DHT22;65111;50.536;19.204;2022-12-07T01:42:18;1.50;97.70
76305;DHT22;65111;50.536;19.204;2022-12-07T01:48:01;1.70;97.70
76305;DHT22;65111;50.536;19.204;2022-12-07T01:50:29;1.60;97.60
76305;DHT22;65111;50.536;19.204;2022-12-07T01:53:00;1.60;97.80
76305;DHT22;65111;50.536;19.204;2022-12-07T01:55:27;1.80;97.80
76305;DHT22;65111;50.536;19.204;2022-12-07T01:57:54;1.70;97.80
76305;DHT22;65111;50.536;19.204;2022-12-07T02:00:20;1.80;97.70
76305;DHT22;65111;50.536;19.204;2022-12-07T02:05:31;1.60;97.60
76305;DHT22;65111;50.536;19.204;2022-12-07T02:07:59;1.60;97.80
76305;DHT22;65111;50.536;19.204;2022-12-07T02:10:28;1.60;97.60
76305;DHT22;65111;50.536;19.204;2022-12-07T02:13:14;1.70;97.70
76305;DHT22;65111;50.536;19.204;2022-12-07T02:21:11;1.70;97.60
76305;DHT22;65111;50.536;19.204;2022-12-07T02:29:55;1.80;97.60
76305;DHT22;65111;50.536;19.204;2022-12-07T02:43:21;1.70;97.60
76305;DHT22;65111;50.536;19.204;2022-12-07T02:45:51;1.70;97.60
76305;DHT22;65111;50.536;19.204;2022-12-07T02:48:19;1.70;97.50
76305;DHT22;65111;50.536;19.204;2022-12-07T02:50:49;1.70;97.60
76305;DHT22;65111;50.536;19.204;2022-12-07T02:53:42;1.60;97.60
76305;DHT22;65111;50.536;19.204;2022-12-07T03:02:05;1.80;97.40
76305;DHT22;65111;50.536;19.204;2022-12-07T03:10:10;1.60;97.50
76305;DHT22;65111;50.536;19.204;2022-12-07T03:15:31;1.70;97.30
76305;DHT22;65111;50.536;19.204;2022-12-07T03:17:57;1.70;97.40
76305;DHT22;65111;50.536;19.204;2022-12-07T03:20:25;1.60;97.50
76305;DHT22;65111;50.536;19.204;2022-12-07T03:22:54;1.70;97.40
76305;DHT22;65111;50.536;19.204;2022-12-07T03:25:21;1.70;97.50
76305;DHT22;65111;50.536;19.204;2022-12-07T03:27:54;1.60;97.40
76305;DHT22;65111;50.536;19.204;2022-12-07T03:30:53;1.70;97.40
76305;DHT22;65111;50.536;19.204;2022-12-07T03:33:36;1.70;97.50
76305;DHT22;65111;50.536;19.204;2022-12-07T03:36:20;1.80;97.30
76305;DHT22;65111;50.536;19.204;2022-12-07T03:39:17;1.60;97.50
76305;DHT22;65111;50.536;19.204;2022-12-07T03:41:44;1.60;97.50
76305;DHT22;65111;50.536;19.204;2022-12-07T03:44:12;1.40;97.50
76305;DHT22;65111;50.536;19.204;2022-12-07T03:54:45;1.60;97.30
76305;DHT22;65111;50.536;19.204;2022-12-07T03:57:14;1.50;97.40
76305;DHT22;65111;50.536;19.204;2022-12-07T03:59:41;1.80;97.20
76305;DHT22;65111;50.536;19.204;2022-12-07T04:02:11;1.50;97.30
76305;DHT22;65111;50.536;19.204;2022-12-07T04:04:37;1.70;97.30
76305;DHT22;65111;50.536;19.204;2022-12-07T04:07:03;1.70;97.40
76305;DHT22;65111;50.536;19.204;2022-12-07T04:09:29;1.70;97.40
76305;DHT22;65111;50.536;19.204;2022-12-07T04:11:56;1.60;97.30
76305;DHT22;65111;50.536;19.204;2022-12-07T04:14:22;1.60;97.30
76305;DHT22;65111;50.536;19.204;2022-12-07T04:16:48;1.70;97.30
76305;DHT22;65111;50.536;19.204;2022-12-07T04:19:14;1.60;97.30
76305;DHT22;65111;50.536;19.204;2022-12-07T04:21:40;1.60;97.30
76305;DHT22;65111;50.536;19.204;2022-12-07T04:24:06;1.60;97.20
76305;DHT22;65111;50.536;19.204;2022-12-07T04:26:32;1.60;97.30
76305;DHT22;65111;50.536;19.204;2022-12-07T04:28:59;1.80;97.30
76305;DHT22;65111;50.536;19.204;2022-12-07T04:31:25;1.70;97.30
76305;DHT22;65111;50.536;19.204;2022-12-07T04:33:51;1.70;97.30
76305;DHT22;65111;50.536;19.204;2022-12-07T04:36:17;1.60;97.30
76305;DHT22;65111;50.536;19.204;2022-12-07T04:38:45;1.50;97.30
76305;DHT22;65111;50.536;19.204;2022-12-07T04:41:11;1.70;97.30
76305;DHT22;65111;50.536;19.204;2022-12-07T04:43:37;1.70;97.40
76305;DHT22;65111;50.536;19.204;2022-12-07T04:46:04;1.70;97.30
76305;DHT22;65111;50.536;19.204;2022-12-07T04:48:30;1.60;97.40
76305;DHT22;65111;50.536;19.204;2022-12-07T04:50:56;1.50;97.30
76305;DHT22;65111;50.536;19.204;2022-12-07T04:53:22;1.70;97.30
76305;DHT22;65111;50.536;19.204;2022-12-07T04:55:48;1.60;97.30
76305;DHT22;65111;50.536;19.204;2022-12-07T04:58:14;1.70;97.30
76305;DHT22;65111;50.536;19.204;2022-12-07T05:00:40;1.80;97.30
76305;DHT22;65111;50.536;19.204;2022-12-07T05:03:06;1.60;97.30
76305;DHT22;65111;50.536;19.204;2022-12-07T05:05:32;1.60;97.20
76305;DHT22;65111;50.536;19.204;2022-12-07T05:07:58;1.60;97.30
76305;DHT22;65111;50.536;19.204;2022-12-07T05:10:24;1.60;97.40
76305;DHT22;65111;50.536;19.204;2022-12-07T05:12:50;1.60;97.40
76305;DHT22;65111;50.536;19.204;2022-12-07T05:15:16;1.60;97.40
76305;DHT22;65111;50.536;19.204;2022-12-07T05:17:42;1.70;97.40
76305;DHT22;65111;50.536;19.204;2022-12-07T05:20:09;1.70;97.30
76305;DHT22;65111;50.536;19.204;2022-12-07T05:22:35;1.70;97.40
76305;DHT22;65111;50.536;19.204;2022-12-07T05:25:01;1.50;97.50
76305;DHT22;65111;50.536;19.204;2022-12-07T05:27:27;1.50;97.40
76305;DHT22;65111;50.536;19.204;2022-12-07T05:29:53;1.60;97.30
76305;DHT22;65111;50.536;19.204;2022-12-07T05:32:19;1.50;97.30
76305;DHT22;65111;50.536;19.204;2022-12-07T05:34:44;1.70;97.30
76305;DHT22;65111;50.536;19.204;2022-12-07T05:37:11;1.70;97.30
76305;DHT22;65111;50.536;19.204;2022-12-07T05:39:37;1.50;97.30
76305;DHT22;65111;50.536;19.204;2022-12-07T05:42:06;1.50;97.40
76305;DHT22;65111;50.536;19.204;2022-12-07T05:44:39;1.50;97.40
76305;DHT22;65111;50.536;19.204;2022-12-07T05:47:05;1.40;97.50
76305;DHT22;65111;50.536;19.204;2022-12-07T05:49:31;1.60;97.50
76305;DHT22;65111;50.536;19.204;2022-12-07T05:51:58;1.50;97.40
76305;DHT22;65111;50.536;19.204;2022-12-07T05:54:24;1.50;97.30
76305;DHT22;65111;50.536;19.204;2022-12-07T05:56:49;1.50;97.40
76305;DHT22;65111;50.536;19.204;2022-12-07T05:59:16;1.60;97.40
76305;DHT22;65111;50.536;19.204;2022-12-07T06:04:15;1.50;97.40
76305;DHT22;65111;50.536;19.204;2022-12-07T06:06:41;1.50;97.40
76305;DHT22;65111;50.536;19.204;2022-12-07T06:09:07;1.50;97.50
76305;DHT22;65111;50.536;19.204;2022-12-07T06:11:34;1.40;97.50
76305;DHT22;65111;50.536;19.204;2022-12-07T06:14:19;1.40;97.50
76305;DHT22;65111;50.536;19.204;2022-12-07T06:16:45;1.60;97.50
76305;DHT22;65111;50.536;19.204;2022-12-07T06:19:11;1.60;97.50
76305;DHT22;65111;50.536;19.204;2022-12-07T06:21:37;1.50;97.60
76305;DHT22;65111;50.536;19.204;2022-12-07T06:24:03;1.50;97.50
76305;DHT22;65111;50.536;19.204;2022-12-07T06:26:29;1.60;97.40
76305;DHT22;65111;50.536;19.204;2022-12-07T06:28:55;1.50;97.50
76305;DHT22;65111;50.536;19.204;2022-12-07T06:31:21;1.50;97.50
76305;DHT22;65111;50.536;19.204;2022-12-07T06:33:47;1.60;97.60
76305;DHT22;65111;50.536;19.204;2022-12-07T06:36:14;1.40;97.60
76305;DHT22;65111;50.536;19.204;2022-12-07T06:38:39;1.60;97.60
76305;DHT22;65111;50.536;19.204;2022-12-07T06:41:06;1.50;97.70
76305;DHT22;65111;50.536;19.204;2022-12-07T06:43:32;1.40;97.70
76305;DHT22;65111;50.536;19.204;2022-12-07T06:45:58;1.40;97.70
76305;DHT22;65111;50.536;19.204;2022-12-07T06:48:24;1.50;97.70
76305;DHT22;65111;50.536;19.204;2022-12-07T06:50:50;1.60;97.80
76305;DHT22;65111;50.536;19.204;2022-12-07T06:53:16;1.40;97.80
76305;DHT22;65111;50.536;19.204;2022-12-07T06:55:42;1.70;97.60
76305;DHT22;65111;50.536;19.204;2022-12-07T06:58:08;1.50;97.70
76305;DHT22;65111;50.536;19.204;2022-12-07T07:00:34;1.50;97.60
76305;DHT22;65111;50.536;19.204;2022-12-07T07:03:01;1.60;97.60
76305;DHT22;65111;50.536;19.204;2022-12-07T07:05:27;1.60;97.60
76305;DHT22;65111;50.536;19.204;2022-12-07T07:07:53;1.60;97.80
76305;DHT22;65111;50.536;19.204;2022-12-07T07:10:19;1.70;97.50
76305;DHT22;65111;50.536;19.204;2022-12-07T07:12:45;1.50;97.50
76305;DHT22;65111;50.536;19.204;2022-12-07T07:15:10;1.60;97.60
76305;DHT22;65111;50.536;19.204;2022-12-07T07:17:37;1.60;97.60
76305;DHT22;65111;50.536;19.204;2022-12-07T07:20:04;1.60;97.60
76305;DHT22;65111;50.536;19.204;2022-12-07T07:22:30;1.60;97.40
76305;DHT22;65111;50.536;19.204;2022-12-07T07:24:56;1.80;97.20
76305;DHT22;65111;50.536;19.204;2022-12-07T07:27:22;1.60;97.30
76305;DHT22;65111;50.536;19.204;2022-12-07T07:29:48;1.70;97.10
76305;DHT22;65111;50.536;19.204;2022-12-07T07:32:14;1.60;97.30
76305;DHT22;65111;50.536;19.204;2022-12-07T07:34:40;1.60;97.30
76305;DHT22;65111;50.536;19.204;2022-12-07T07:37:06;1.60;97.30
76305;DHT22;65111;50.536;19.204;2022-12-07T07:39:32;1.60;97.30
76305;DHT22;65111;50.536;19.204;2022-12-07T07:41:58;1.70;97.30
76305;DHT22;65111;50.536;19.204;2022-12-07T07:44:24;1.90;97.30
76305;DHT22;65111;50.536;19.204;2022-12-07T07:46:49;1.80;97.10
76305;DHT22;65111;50.536;19.204;2022-12-07T07:49:15;1.80;97.10
76305;DHT22;65111;50.536;19.204;2022-12-07T07:51:41;1.80;97.00
76305;DHT22;65111;50.536;19.204;2022-12-07T07:54:07;1.90;96.90
76305;DHT22;65111;50.536;19.204;2022-12-07T07:56:33;2.00;96.70
76305;DHT22;65111;50.536;19.204;2022-12-07T07:58:59;2.10;96.70
76305;DHT22;65111;50.536;19.204;2022-12-07T08:01:25;2.00;96.40
76305;DHT22;65111;50.536;19.204;2022-12-07T08:03:51;2.10;95.80
76305;DHT22;65111;50.536;19.204;2022-12-07T08:06:17;2.20;96.10
76305;DHT22;65111;50.536;19.204;2022-12-07T08:08:43;2.20;95.80
76305;DHT22;65111;50.536;19.204;2022-12-07T08:11:09;2.20;95.70
76305;DHT22;65111;50.536;19.204;2022-12-07T08:13:35;2.30;95.50
76305;DHT22;65111;50.536;19.204;2022-12-07T08:16:09;2.30;95.50
76305;DHT22;65111;50.536;19.204;2022-12-07T08:18:37;2.40;95.80
76305;DHT22;65111;50.536;19.204;2022-12-07T08:21:05;2.50;95.60
76305;DHT22;65111;50.536;19.204;2022-12-07T08:23:31;2.40;95.20
76305;DHT22;65111;50.536;19.204;2022-12-07T08:26:01;2.70;95.40
76305;DHT22;65111;50.536;19.204;2022-12-07T08:28:28;2.50;94.90
76305;DHT22;65111;50.536;19.204;2022-12-07T08:31:02;2.70;94.70
76305;DHT22;65111;50.536;19.204;2022-12-07T08:33:29;2.70;94.50
76305;DHT22;65111;50.536;19.204;2022-12-07T08:36:03;2.60;94.30
76305;DHT22;65111;50.536;19.204;2022-12-07T08:38:29;2.60;94.70
76305;DHT22;65111;50.536;19.204;2022-12-07T08:40:56;2.60;94.30
76305;DHT22;65111;50.536;19.204;2022-12-07T08:43:23;2.50;94.10
76305;DHT22;65111;50.536;19.204;2022-12-07T08:48:30;2.60;94.40
76305;DHT22;65111;50.536;19.204;2022-12-07T08:50:57;2.50;94.40
76305;DHT22;65111;50.536;19.204;2022-12-07T08:53:24;2.50;94.40
76305;DHT22;65111;50.536;19.204;2022-12-07T08:55:50;2.60;94.60
76305;DHT22;65111;50.536;19.204;2022-12-07T08:58:17;2.40;94.30
76305;DHT22;65111;50.536;19.204;2022-12-07T09:00:42;2.40;93.90
76305;DHT22;65111;50.536;19.204;2022-12-07T09:03:08;2.40;94.10
76305;DHT22;65111;50.536;19.204;2022-12-07T09:05:34;2.30;94.00
76305;DHT22;65111;50.536;19.204;2022-12-07T09:08:01;2.30;94.40
76305;DHT22;65111;50.536;19.204;2022-12-07T09:10:30;2.40;94.40
76305;DHT22;65111;50.536;19.204;2022-12-07T09:12:57;2.30;94.10
76305;DHT22;65111;50.536;19.204;2022-12-07T09:15:30;2.40;94.20
76305;DHT22;65111;50.536;19.204;2022-12-07T09:17:57;2.40;93.90
76305;DHT22;65111;50.536;19.204;2022-12-07T09:20:22;2.40;94.10
76305;DHT22;65111;50.536;19.204;2022-12-07T09:22:48;2.50;94.00
76305;DHT22;65111;50.536;19.204;2022-12-07T09:25:15;2.50;94.10
76305;DHT22;65111;50.536;19.204;2022-12-07T09:27:41;2.80;93.60
76305;DHT22;65111;50.536;19.204;2022-12-07T09:30:08;2.70;93.40
76305;DHT22;65111;50.536;19.204;2022-12-07T09:32:34;2.70;92.90
76305;DHT22;65111;50.536;19.204;2022-12-07T09:35:00;3.00;92.70
76305;DHT22;65111;50.536;19.204;2022-12-07T09:37:26;2.90;92.90
76305;DHT22;65111;50.536;19.204;2022-12-07T09:39:52;2.80;92.60
76305;DHT22;65111;50.536;19.204;2022-12-07T09:42:38;3.00;92.40
76305;DHT22;65111;50.536;19.204;2022-12-07T09:45:15;3.00;92.30
76305;DHT22;65111;50.536;19.204;2022-12-07T09:47:42;3.30;92.20
76305;DHT22;65111;50.536;19.204;2022-12-07T09:50:19;3.30;91.70
76305;DHT22;65111;50.536;19.204;2022-12-07T09:52:46;3.30;91.60
76305;DHT22;65111;50.536;19.204;2022-12-07T09:55:16;3.50;90.90
76305;DHT22;65111;50.536;19.204;2022-12-07T09:57:43;3.30;90.90
76305;DHT22;65111;50.536;19.204;2022-12-07T10:00:18;3.40;91.20
76305;DHT22;65111;50.536;19.204;2022-12-07T10:02:49;3.40;91.00
76305;DHT22;65111;50.536;19.204;2022-12-07T10:05:24;3.30;91.20
76305;DHT22;65111;50.536;19.204;2022-12-07T10:07:52;3.30;91.00
76305;DHT22;65111;50.536;19.204;2022-12-07T10:10:24;3.20;91.00
76305;DHT22;65111;50.536;19.204;2022-12-07T10:15:44;3.30;91.40
76305;DHT22;65111;50.536;19.204;2022-12-07T10:23:36;3.00;91.70
76305;DHT22;65111;50.536;19.204;2022-12-07T10:28:56;2.90;91.70
76305;DHT22;65111;50.536;19.204;2022-12-07T10:31:24;3.00;92.10
76305;DHT22;65111;50.536;19.204;2022-12-07T10:33:55;2.80;92.20
76305;DHT22;65111;50.536;19.204;2022-12-07T10:36:40;2.90;92.10
76305;DHT22;65111;50.536;19.204;2022-12-07T10:39:15;3.10;91.90
76305;DHT22;65111;50.536;19.204;2022-12-07T10:42:01;3.20;91.90
76305;DHT22;65111;50.536;19.204;2022-12-07T10:44:29;3.50;91.80
76305;DHT22;65111;50.536;19.204;2022-12-07T10:53:16;4.10;90.10
76305;DHT22;65111;50.536;19.204;2022-12-07T11:01:36;3.90;90.20
76305;DHT22;65111;50.536;19.204;2022-12-07T11:12:58;3.50;90.40
76305;DHT22;65111;50.536;19.204;2022-12-07T11:16:04;3.60;90.40
76305;DHT22;65111;50.536;19.204;2022-12-07T11:18:40;3.60;90.60
76305;DHT22;65111;50.536;19.204;2022-12-07T11:21:24;3.40;90.70
76305;DHT22;65111;50.536;19.204;2022-12-07T11:24:07;3.50;90.90
76305;DHT22;65111;50.536;19.204;2022-12-07T11:32:39;3.40;91.60
76305;DHT22;65111;50.536;19.204;2022-12-07T11:38:14;3.40;91.80
76305;DHT22;65111;50.536;19.204;2022-12-07T11:40:45;3.40;91.90
76305;DHT22;65111;50.536;19.204;2022-12-07T11:43:20;3.40;91.90
76305;DHT22;65111;50.536;19.204;2022-12-07T11:45:56;3.60;91.50
76305;DHT22;65111;50.536;19.204;2022-12-07T11:48:35;3.50;91.50
76305;DHT22;65111;50.536;19.204;2022-12-07T11:51:07;3.70;91.30
76305;DHT22;65111;50.536;19.204;2022-12-07T11:53:48;3.80;91.10
76305;DHT22;65111;50.536;19.204;2022-12-07T11:56:20;3.80;90.80
76305;DHT22;65111;50.536;19.204;2022-12-07T12:01:28;4.80;90.10
76305;DHT22;65111;50.536;19.204;2022-12-07T12:06:44;7.10;83.30
76305;DHT22;65111;50.536;19.204;2022-12-07T12:23:12;8.90;74.10
76305;DHT22;65111;50.536;19.204;2022-12-07T12:31:13;6.60;80.80
76305;DHT22;65111;50.536;19.204;2022-12-07T12:33:49;6.30;81.40
76305;DHT22;65111;50.536;19.204;2022-12-07T12:41:53;5.20;84.70
76305;DHT22;65111;50.536;19.204;2022-12-07T12:46:58;4.70;86.40
76305;DHT22;65111;50.536;19.204;2022-12-07T12:51:53;4.40;87.50
76305;DHT22;65111;50.536;19.204;2022-12-07T12:57:09;4.50;87.30
76305;DHT22;65111;50.536;19.204;2022-12-07T12:59:59;4.20;87.90
76305;DHT22;65111;50.536;19.204;2022-12-07T13:02:29;3.90;89.00
76305;DHT22;65111;50.536;19.204;2022-12-07T13:07:57;3.60;89.90
76305;DHT22;65111;50.536;19.204;2022-12-07T13:15:48;3.40;91.10
76305;DHT22;65111;50.536;19.204;2022-12-07T13:23:54;3.00;92.10
76305;DHT22;65111;50.536;19.204;2022-12-07T13:29:18;3.30;92.20
76305;DHT22;65111;50.536;19.204;2022-12-07T13:31:51;3.20;92.20
76305;DHT22;65111;50.536;19.204;2022-12-07T13:34:30;3.10;92.30
76305;DHT22;65111;50.536;19.204;2022-12-07T13:36:58;3.30;92.50
76305;DHT22;65111;50.536;19.204;2022-12-07T13:39:25;3.20;92.50
76305;DHT22;65111;50.536;19.204;2022-12-07T13:41:51;3.20;92.70
76305;DHT22;65111;50.536;19.204;2022-12-07T13:44:19;2.90;92.90
76305;DHT22;65111;50.536;19.204;2022-12-07T13:49:29;2.80;93.20
76305;DHT22;65111;50.536;19.204;2022-12-07T13:52:06;3.20;93.20
76305;DHT22;65111;50.536;19.204;2022-12-07T13:54:44;2.80;93.20
76305;DHT22;65111;50.536;19.204;2022-12-07T13:57:10;3.00;93.30
76305;DHT22;65111;50.536;19.204;2022-12-07T13:59:37;3.00;93.40
76305;DHT22;65111;50.536;19.204;2022-12-07T14:02:28;2.80;93.70
76305;DHT22;65111;50.536;19.204;2022-12-07T14:05:14;2.80;93.80
76305;DHT22;65111;50.536;19.204;2022-12-07T14:10:55;2.90;93.80
76305;DHT22;65111;50.536;19.204;2022-12-07T14:13:33;2.70;93.80
76305;DHT22;65111;50.536;19.204;2022-12-07T14:16:01;2.90;94.10
76305;DHT22;65111;50.536;19.204;2022-12-07T14:18:30;2.80;94.10
76305;DHT22;65111;50.536;19.204;2022-12-07T14:21:15;2.80;94.10
76305;DHT22;65111;50.536;19.204;2022-12-07T14:23:42;2.60;93.90
76305;DHT22;65111;50.536;19.204;2022-12-07T14:26:19;2.90;94.00
76305;DHT22;65111;50.536;19.204;2022-12-07T14:28:47;2.70;93.70
76305;DHT22;65111;50.536;19.204;2022-12-07T14:31:17;2.60;93.90
76305;DHT22;65111;50.536;19.204;2022-12-07T14:33:45;2.60;93.70
76305;DHT22;65111;50.536;19.204;2022-12-07T14:36:13;2.60;93.80
76305;DHT22;65111;50.536;19.204;2022-12-07T14:38:39;2.60;93.90
76305;DHT22;65111;50.536;19.204;2022-12-07T14:41:15;2.40;94.00
76305;DHT22;65111;50.536;19.204;2022-12-07T14:44:04;2.50;94.10
76305;DHT22;65111;50.536;19.204;2022-12-07T14:46:33;2.60;94.20
76305;DHT22;65111;50.536;19.204;2022-12-07T14:48:59;2.40;94.30
76305;DHT22;65111;50.536;19.204;2022-12-07T14:51:25;2.40;94.50
76305;DHT22;65111;50.536;19.204;2022-12-07T14:53:51;2.40;94.60
76305;DHT22;65111;50.536;19.204;2022-12-07T14:56:17;2.30;94.50
76305;DHT22;65111;50.536;19.204;2022-12-07T14:58:43;2.30;94.70
76305;DHT22;65111;50.536;19.204;2022-12-07T15:01:09;2.20;94.80
76305;DHT22;65111;50.536;19.204;2022-12-07T15:03:35;2.10;94.90
76305;DHT22;65111;50.536;19.204;2022-12-07T15:06:04;2.20;95.00
76305;DHT22;65111;50.536;19.204;2022-12-07T15:08:30;2.10;94.90
76305;DHT22;65111;50.536;19.204;2022-12-07T15:10:56;2.40;95.10
76305;DHT22;65111;50.536;19.204;2022-12-07T15:13:22;2.20;95.40
76305;DHT22;65111;50.536;19.204;2022-12-07T15:16:10;2.20;95.50
76305;DHT22;65111;50.536;19.204;2022-12-07T15:18:38;2.20;95.50
76305;DHT22;65111;50.536;19.204;2022-12-07T15:21:04;2.10;95.70
76305;DHT22;65111;50.536;19.204;2022-12-07T15:23:30;2.20;95.80
76305;DHT22;65111;50.536;19.204;2022-12-07T15:25:57;2.00;96.00
76305;DHT22;65111;50.536;19.204;2022-12-07T15:28:22;2.10;95.80
76305;DHT22;65111;50.536;19.204;2022-12-07T15:30:48;2.00;95.80
76305;DHT22;65111;50.536;19.204;2022-12-07T15:33:14;2.20;95.90
76305;DHT22;65111;50.536;19.204;2022-12-07T15:35:42;2.10;95.90
76305;DHT22;65111;50.536;19.204;2022-12-07T15:38:09;2.10;95.90
76305;DHT22;65111;50.536;19.204;2022-12-07T15:40:35;2.00;95.70
76305;DHT22;65111;50.536;19.204;2022-12-07T15:43:01;2.10;95.70
76305;DHT22;65111;50.536;19.204;2022-12-07T15:45:27;2.10;95.40
76305;DHT22;65111;50.536;19.204;2022-12-07T15:47:53;2.00;95.40
76305;DHT22;65111;50.536;19.204;2022-12-07T15:50:21;2.10;95.50
76305;DHT22;65111;50.536;19.204;2022-12-07T15:52:47;2.10;95.00
76305;DHT22;65111;50.536;19.204;2022-12-07T15:55:14;1.90;95.00
76305;DHT22;65111;50.536;19.204;2022-12-07T15:57:39;2.20;95.00
76305;DHT22;65111;50.536;19.204;2022-12-07T16:00:08;2.10;94.90
76305;DHT22;65111;50.536;19.204;2022-12-07T16:02:36;1.90;94.70
76305;DHT22;65111;50.536;19.204;2022-12-07T16:05:02;2.10;94.70
76305;DHT22;65111;50.536;19.204;2022-12-07T16:07:28;2.20;94.60
76305;DHT22;65111;50.536;19.204;2022-12-07T16:09:54;2.10;94.70
76305;DHT22;65111;50.536;19.204;2022-12-07T16:12:20;2.20;94.70
76305;DHT22;65111;50.536;19.204;2022-12-07T16:14:46;2.10;94.60
76305;DHT22;65111;50.536;19.204;2022-12-07T16:17:12;2.10;94.40
76305;DHT22;65111;50.536;19.204;2022-12-07T16:19:39;2.10;94.80
76305;DHT22;65111;50.536;19.204;2022-12-07T16:22:05;1.90;94.90
76305;DHT22;65111;50.536;19.204;2022-12-07T16:24:31;2.00;94.90
76305;DHT22;65111;50.536;19.204;2022-12-07T16:26:57;1.90;95.00
76305;DHT22;65111;50.536;19.204;2022-12-07T16:29:23;2.10;95.00
76305;DHT22;65111;50.536;19.204;2022-12-07T16:31:51;2.10;94.70
76305;DHT22;65111;50.536;19.204;2022-12-07T16:34:18;2.10;94.60
76305;DHT22;65111;50.536;19.204;2022-12-07T16:36:44;2.20;94.80
76305;DHT22;65111;50.536;19.204;2022-12-07T16:39:11;1.90;94.70
76305;DHT22;65111;50.536;19.204;2022-12-07T16:41:36;2.10;94.60
76305;DHT22;65111;50.536;19.204;2022-12-07T16:44:08;2.00;94.60
76305;DHT22;65111;50.536;19.204;2022-12-07T16:46:36;2.00;94.20
76305;DHT22;65111;50.536;19.204;2022-12-07T16:49:02;1.90;94.10
76305;DHT22;65111;50.536;19.204;2022-12-07T16:51:29;1.90;94.30
76305;DHT22;65111;50.536;19.204;2022-12-07T16:53:55;1.90;94.00
76305;DHT22;65111;50.536;19.204;2022-12-07T16:56:22;2.10;94.10
76305;DHT22;65111;50.536;19.204;2022-12-07T16:58:48;1.90;94.30
76305;DHT22;65111;50.536;19.204;2022-12-07T17:01:18;2.00;94.30
76305;DHT22;65111;50.536;19.204;2022-12-07T17:03:44;1.70;94.30
76305;DHT22;65111;50.536;19.204;2022-12-07T17:08:42;1.90;94.40
76305;DHT22;65111;50.536;19.204;2022-12-07T17:11:28;2.10;94.30
76305;DHT22;65111;50.536;19.204;2022-12-07T17:13:56;1.90;94.40
76305;DHT22;65111;50.536;19.204;2022-12-07T17:16:41;1.90;94.30
76305;DHT22;65111;50.536;19.204;2022-12-07T17:19:08;1.80;94.30
76305;DHT22;65111;50.536;19.204;2022-12-07T17:21:34;1.80;94.30
76305;DHT22;65111;50.536;19.204;2022-12-07T17:24:02;1.90;94.10
76305;DHT22;65111;50.536;19.204;2022-12-07T17:26:29;1.80;94.20
76305;DHT22;65111;50.536;19.204;2022-12-07T17:28:56;2.00;94.30
76305;DHT22;65111;50.536;19.204;2022-12-07T17:31:22;1.80;94.20
76305;DHT22;65111;50.536;19.204;2022-12-07T17:33:49;1.90;94.00
76305;DHT22;65111;50.536;19.204;2022-12-07T17:36:18;1.90;94.20
76305;DHT22;65111;50.536;19.204;2022-12-07T17:38:44;1.90;93.80
76305;DHT22;65111;50.536;19.204;2022-12-07T17:41:13;1.90;94.00
76305;DHT22;65111;50.536;19.204;2022-12-07T17:44:00;1.80;94.10
76305;DHT22;65111;50.536;19.204;2022-12-07T17:46:27;2.00;94.30
76305;DHT22;65111;50.536;19.204;2022-12-07T17:48:54;1.90;94.20
76305;DHT22;65111;50.536;19.204;2022-12-07T17:51:20;1.70;94.40
76305;DHT22;65111;50.536;19.204;2022-12-07T17:54:05;1.90;94.30
76305;DHT22;65111;50.536;19.204;2022-12-07T17:56:31;1.80;94.50
76305;DHT22;65111;50.536;19.204;2022-12-07T17:58:57;1.70;94.40
76305;DHT22;65111;50.536;19.204;2022-12-07T18:01:23;1.90;94.60
76305;DHT22;65111;50.536;19.204;2022-12-07T18:03:49;1.80;94.50
76305;DHT22;65111;50.536;19.204;2022-12-07T18:06:15;1.80;94.60
76305;DHT22;65111;50.536;19.204;2022-12-07T18:08:41;1.80;94.70
76305;DHT22;65111;50.536;19.204;2022-12-07T18:11:07;1.80;94.70
76305;DHT22;65111;50.536;19.204;2022-12-07T18:13:33;1.80;94.80
76305;DHT22;65111;50.536;19.204;2022-12-07T18:18:33;2.00;94.80
76305;DHT22;65111;50.536;19.204;2022-12-07T18:21:04;1.80;95.00
76305;DHT22;65111;50.536;19.204;2022-12-07T18:23:30;1.80;95.00
76305;DHT22;65111;50.536;19.204;2022-12-07T18:25:58;1.80;95.20